Time;durP1;ratioP1;P1;durP2;ratioP2;P2;SDS_P1;SDS_P2;PMS_P1;PMS_P2;Temp;Humidity;BMP_temperature;BMP_pressure;BME280_temperature;BME280_humidity;BME280_pressure;Samples;Min_cycle;Max_cycle;Signal;HPM_P1;HPM_P2
2020/12/15 00:02:30;;;;;;;14.48;7.15;;;5.50;99.90;;;;;;5018012;28;20492;-61
2020/12/15 00:05:16;;;;;;;13.63;7.88;;;5.40;99.90;;;;;;5032676;28;20025;-61
2020/12/15 00:08:02;;;;;;;18.23;7.78;;;5.40;99.90;;;;;;5031652;28;20048;-61
2020/12/15 00:10:48;;;;;;;11.57;6.55;;;5.40;99.90;;;;;;5031777;28;20044;-60
2020/12/15 00:13:34;;;;;;;12.85;7.13;;;5.40;99.90;;;;;;5016446;28;20029;-61
2020/12/15 00:16:20;;;;;;;12.07;6.72;;;5.40;99.90;;;;;;5031303;28;20041;-61
2020/12/15 00:19:06;;;;;;;14.07;7.72;;;5.40;99.90;;;;;;5031291;28;20042;-61
2020/12/15 00:21:53;;;;;;;13.35;7.22;;;5.40;99.90;;;;;;5017231;28;20033;-61
2020/12/15 00:24:40;;;;;;;15.15;7.40;;;5.30;99.90;;;;;;5016742;28;20491;-61
2020/12/15 00:27:26;;;;;;;12.45;6.50;;;5.30;99.90;;;;;;5030734;28;20029;-60
2020/12/15 00:30:13;;;;;;;15.77;6.63;;;5.40;99.90;;;;;;5017205;28;20509;-61
2020/12/15 00:32:59;;;;;;;16.83;7.40;;;5.30;99.90;;;;;;5031679;28;20072;-60
2020/12/15 00:35:45;;;;;;;16.52;8.50;;;5.30;99.90;;;;;;5032363;28;20088;-61
2020/12/15 00:38:31;;;;;;;14.45;8.77;;;5.10;99.90;;;;;;5030565;28;20124;-59
2020/12/15 00:41:17;;;;;;;13.95;7.95;;;5.10;99.90;;;;;;5017375;28;20065;-60
2020/12/15 00:44:03;;;;;;;15.73;8.25;;;5.30;99.90;;;;;;5030770;28;20530;-60
2020/12/15 00:46:50;;;;;;;16.35;8.15;;;5.50;99.90;;;;;;5031042;28;20029;-60
2020/12/15 00:49:36;;;;;;;14.43;7.30;;;5.50;99.90;;;;;;5017013;28;20033;-60
2020/12/15 00:52:26;;;;;;;14.00;7.65;;;5.40;99.90;;;;;;5017373;28;20116;-60
2020/12/15 00:55:12;;;;;;;13.48;7.18;;;5.40;99.90;;;;;;5017343;28;20037;-60
2020/12/15 00:57:58;;;;;;;13.27;7.13;;;5.40;99.90;;;;;;5030732;28;20052;-60
2020/12/15 01:00:44;;;;;;;12.63;6.47;;;5.50;99.90;;;;;;5030409;28;20029;-60
2020/12/15 01:03:31;;;;;;;11.75;6.45;;;5.50;99.90;;;;;;5030154;28;20080;-60
2020/12/15 01:06:17;;;;;;;11.70;6.45;;;5.60;99.90;;;;;;5031831;28;20487;-60
2020/12/15 01:09:05;;;;;;;12.38;6.57;;;5.70;99.90;;;;;;5030640;28;20107;-60
2020/12/15 01:11:51;;;;;;;12.10;5.68;;;5.70;99.90;;;;;;5031167;28;20064;-60
2020/12/15 01:14:37;;;;;;;11.60;5.78;;;5.80;99.90;;;;;;5030357;28;20500;-60
2020/12/15 01:17:23;;;;;;;10.82;5.53;;;5.90;99.90;;;;;;5029564;28;20030;-60
2020/12/15 01:20:09;;;;;;;9.18;4.88;;;6.00;99.90;;;;;;5031804;28;20033;-60
2020/12/15 01:22:55;;;;;;;10.23;5.28;;;6.00;99.90;;;;;;5031791;28;20110;-60
2020/12/15 01:25:41;;;;;;;8.88;5.28;;;6.10;99.90;;;;;;5030207;28;20029;-60
2020/12/15 01:28:27;;;;;;;10.77;5.57;;;6.10;99.90;;;;;;5030769;28;20092;-61
2020/12/15 01:31:14;;;;;;;11.18;5.22;;;6.10;99.90;;;;;;5030501;28;20116;-60
2020/12/15 01:34:00;;;;;;;8.98;4.93;;;6.10;99.90;;;;;;5016151;28;20418;-60
2020/12/15 01:36:47;;;;;;;9.43;5.55;;;6.00;99.90;;;;;;5029838;28;20570;-60
2020/12/15 01:39:33;;;;;;;11.07;5.40;;;6.00;99.90;;;;;;5018885;28;20215;-60
2020/12/15 01:42:19;;;;;;;11.75;5.55;;;6.10;99.90;;;;;;5020101;28;20045;-60
2020/12/15 01:45:07;;;;;;;12.25;6.28;;;6.10;99.90;;;;;;5033251;28;20419;-60
2020/12/15 01:47:53;;;;;;;9.20;4.75;;;6.00;99.90;;;;;;5034418;28;20120;-60
2020/12/15 01:50:39;;;;;;;10.93;5.60;;;6.00;99.90;;;;;;5020760;28;20103;-60
2020/12/15 01:53:25;;;;;;;12.63;5.80;;;6.00;99.90;;;;;;5032761;28;20498;-60
2020/12/15 01:56:12;;;;;;;11.98;5.40;;;6.00;99.90;;;;;;5034001;28;20056;-60
2020/12/15 01:59:03;;;;;;;11.23;5.53;;;6.00;99.90;;;;;;5019558;28;20099;-60
2020/12/15 02:01:50;;;;;;;9.43;4.88;;;6.00;99.90;;;;;;5018813;28;20556;-58
2020/12/15 02:04:36;;;;;;;8.88;5.10;;;6.00;99.90;;;;;;5035208;28;20041;-60
2020/12/15 02:07:22;;;;;;;9.95;5.35;;;6.00;99.90;;;;;;5033329;28;20157;-61
2020/12/15 02:10:08;;;;;;;9.82;5.18;;;6.00;99.90;;;;;;5035210;28;20042;-59
2020/12/15 02:12:54;;;;;;;13.82;5.63;;;6.00;99.90;;;;;;5033694;28;20183;-60
2020/12/15 02:15:41;;;;;;;11.18;5.50;;;6.10;99.90;;;;;;5019818;28;20045;-60
2020/12/15 02:18:28;;;;;;;8.70;5.28;;;6.40;99.90;;;;;;5033084;28;20052;-60
2020/12/15 02:21:14;;;;;;;9.23;4.97;;;6.60;99.90;;;;;;5005939;28;20049;-59
2020/12/15 02:24:00;;;;;;;9.73;5.35;;;6.40;99.90;;;;;;5034509;28;20034;-59
2020/12/15 02:26:46;;;;;;;9.00;5.03;;;6.40;99.90;;;;;;5033396;28;20029;-60
2020/12/15 02:29:33;;;;;;;12.23;5.25;;;6.40;99.90;;;;;;5034052;28;20041;-59
2020/12/15 02:32:19;;;;;;;9.68;5.43;;;6.50;99.90;;;;;;5033978;28;20478;-60
2020/12/15 02:35:05;;;;;;;9.90;5.30;;;6.50;99.90;;;;;;5020418;28;20119;-60
2020/12/15 02:37:51;;;;;;;8.73;4.85;;;6.40;99.90;;;;;;5032548;28;20084;-60
2020/12/15 02:40:40;;;;;;;12.07;5.85;;;6.50;99.90;;;;;;5033105;28;20041;-60
2020/12/15 02:43:26;;;;;;;11.20;4.85;;;6.40;99.90;;;;;;5018475;28;20068;-60
2020/12/15 02:46:12;;;;;;;9.02;4.85;;;6.30;99.90;;;;;;5033192;28;20044;-60
2020/12/15 02:48:58;;;;;;;14.20;5.97;;;6.40;99.90;;;;;;5034008;28;20069;-60
2020/12/15 02:51:51;;;;;;;13.40;5.22;;;6.40;99.90;;;;;;5033027;28;20038;-60
2020/12/15 02:54:37;;;;;;;11.23;5.55;;;6.40;99.90;;;;;;5033649;28;20387;-60
2020/12/15 02:57:23;;;;;;;11.57;5.72;;;6.40;99.90;;;;;;5018280;28;20462;-60
2020/12/15 03:00:10;;;;;;;9.77;5.35;;;6.40;99.90;;;;;;5032136;28;20037;-60
2020/12/15 03:02:56;;;;;;;9.88;5.10;;;6.50;99.90;;;;;;5019178;28;20379;-60
2020/12/15 03:05:42;;;;;;;11.13;5.78;;;6.50;99.90;;;;;;5034085;28;20033;-60
2020/12/15 03:08:28;;;;;;;12.77;6.13;;;6.50;99.90;;;;;;5032707;28;20493;-60
2020/12/15 03:11:14;;;;;;;8.88;5.53;;;6.50;99.90;;;;;;5031961;28;20040;-60
2020/12/15 03:14:02;;;;;;;11.48;5.15;;;6.60;99.90;;;;;;5033277;28;20041;-60
2020/12/15 03:16:48;;;;;;;9.20;5.10;;;6.60;99.90;;;;;;5032178;28;20037;-60
2020/12/15 03:19:33;;;;;;;12.38;5.97;;;6.60;99.90;;;;;;5019068;28;20029;-60
2020/12/15 03:22:19;;;;;;;11.27;5.63;;;6.70;99.90;;;;;;5033568;28;20042;-60
2020/12/15 03:25:06;;;;;;;10.55;5.55;;;6.60;99.90;;;;;;5032519;28;20034;-60
2020/12/15 03:27:52;;;;;;;11.45;5.30;;;6.50;99.90;;;;;;5031918;28;20111;-59
2020/12/15 03:30:38;;;;;;;11.88;5.60;;;6.50;99.90;;;;;;5011377;28;20038;-60
2020/12/15 03:33:25;;;;;;;12.63;5.47;;;6.50;99.90;;;;;;5011906;28;20045;-60
2020/12/15 03:36:11;;;;;;;13.13;5.53;;;6.50;99.90;;;;;;5013516;28;20034;-59
2020/12/15 03:38:57;;;;;;;9.38;5.30;;;6.60;99.90;;;;;;5011378;28;20029;-60
2020/12/15 03:41:43;;;;;;;10.88;5.57;;;6.60;99.90;;;;;;5013573;28;20038;-60
2020/12/15 03:44:29;;;;;;;14.25;5.65;;;6.60;99.90;;;;;;5013324;28;20157;-60
2020/12/15 03:47:15;;;;;;;10.30;5.60;;;6.60;99.90;;;;;;5012271;28;20125;-61
2020/12/15 03:50:01;;;;;;;12.38;5.93;;;6.60;99.90;;;;;;5010988;28;20072;-60
2020/12/15 03:52:47;;;;;;;12.02;6.13;;;6.70;99.90;;;;;;4997634;28;20068;-60
2020/12/15 03:55:33;;;;;;;10.05;5.53;;;6.60;99.90;;;;;;5013247;28;20072;-60
2020/12/15 03:58:19;;;;;;;9.80;5.25;;;6.70;99.90;;;;;;5011263;28;20453;-60
2020/12/15 04:01:05;;;;;;;11.60;5.65;;;6.80;99.90;;;;;;5011067;28;20450;-60
2020/12/15 04:03:51;;;;;;;11.45;5.70;;;6.70;99.90;;;;;;5010922;28;20112;-60
2020/12/15 04:06:37;;;;;;;16.27;6.85;;;6.80;99.90;;;;;;5012088;28;20037;-60
2020/12/15 04:09:23;;;;;;;10.05;5.60;;;6.70;99.90;;;;;;5011953;28;20034;-60
2020/12/15 04:12:11;;;;;;;11.95;6.22;;;6.70;99.90;;;;;;5012044;28;20120;-60
2020/12/15 04:14:57;;;;;;;12.27;6.25;;;6.60;99.90;;;;;;5011227;28;20042;-60
2020/12/15 04:17:44;;;;;;;15.07;6.90;;;6.60;99.90;;;;;;4997142;28;20581;-61
2020/12/15 04:20:30;;;;;;;13.07;6.45;;;6.60;99.90;;;;;;4997594;28;20044;-60
2020/12/15 04:23:16;;;;;;;12.57;6.65;;;6.50;99.90;;;;;;4998525;28;20052;-60
2020/12/15 04:26:02;;;;;;;11.98;6.25;;;6.50;99.90;;;;;;5012777;28;20045;-60
2020/12/15 04:28:48;;;;;;;11.88;6.50;;;6.50;99.90;;;;;;5012061;28;20103;-60
2020/12/15 04:31:34;;;;;;;16.50;6.70;;;6.40;99.90;;;;;;5011082;28;20030;-60
2020/12/15 04:34:20;;;;;;;12.35;5.93;;;6.50;99.90;;;;;;5013150;28;20046;-60
2020/12/15 04:37:06;;;;;;;13.40;5.97;;;6.50;99.90;;;;;;5011922;28;20483;-60
2020/12/15 04:39:52;;;;;;;16.00;8.00;;;6.50;99.90;;;;;;5011298;28;20516;-60
2020/12/15 04:42:38;;;;;;;13.73;6.88;;;6.60;99.90;;;;;;5013008;28;20034;-60
2020/12/15 04:45:24;;;;;;;12.20;7.05;;;6.50;99.90;;;;;;5023480;28;20506;-60
2020/12/15 04:48:22;;;;;;;17.48;8.60;;;6.40;99.90;;;;;;5030928;28;20053;-61
2020/12/15 04:51:12;;;;;;;13.93;6.88;;;6.40;99.90;;;;;;5017849;28;20032;-59
2020/12/15 04:54:03;;;;;;;15.95;7.38;;;6.40;99.90;;;;;;5032112;28;20060;-59
2020/12/15 04:56:55;;;;;;;19.98;6.93;;;6.40;99.90;;;;;;5031044;28;20091;-59
2020/12/15 04:59:43;;;;;;;14.80;7.93;;;6.40;99.90;;;;;;5018765;28;20041;-60
2020/12/15 05:02:30;;;;;;;12.68;7.53;;;6.40;99.90;;;;;;5016077;28;20045;-58
2020/12/15 05:05:16;;;;;;;13.18;7.28;;;6.40;99.90;;;;;;5016289;28;20120;-61
2020/12/15 05:08:03;;;;;;;16.42;7.50;;;6.40;99.90;;;;;;5016097;28;20045;-61
2020/12/15 05:10:49;;;;;;;13.23;6.75;;;6.50;99.90;;;;;;5030317;28;20030;-59
2020/12/15 05:13:35;;;;;;;13.15;7.35;;;6.50;99.90;;;;;;5031428;28;20597;-60
2020/12/15 05:16:21;;;;;;;18.58;8.13;;;6.50;99.90;;;;;;5019504;28;20121;-61
2020/12/15 05:19:07;;;;;;;17.23;7.57;;;6.40;99.90;;;;;;5034475;28;20037;-61
2020/12/15 05:21:55;;;;;;;13.90;8.07;;;6.40;99.90;;;;;;5035324;28;20528;-64
2020/12/15 05:24:48;;;;;;;17.05;8.02;;;6.40;99.90;;;;;;5035276;28;20072;-64
2020/12/15 05:27:41;;;;;;;14.88;7.93;;;6.30;99.90;;;;;;5020704;28;20088;-64
2020/12/15 05:30:30;;;;;;;16.25;8.43;;;6.40;99.90;;;;;;5035109;28;20043;-65
2020/12/15 05:33:17;;;;;;;14.60;8.43;;;6.40;99.90;;;;;;5034910;28;20095;-66
2020/12/15 05:36:03;;;;;;;15.15;8.60;;;6.40;99.90;;;;;;5019770;28;20040;-65
2020/12/15 05:39:15;;;;;;;12.50;7.22;;;6.50;99.90;;;;;;5035518;28;20082;-65
2020/12/15 05:42:09;;;;;;;17.15;8.00;;;6.60;99.90;;;;;;5034846;28;20033;-66
2020/12/15 05:44:56;;;;;;;13.73;7.40;;;6.60;99.90;;;;;;5034815;28;20450;-65
2020/12/15 05:47:43;;;;;;;17.33;8.30;;;6.70;99.90;;;;;;5034381;28;20120;-62
2020/12/15 05:50:29;;;;;;;14.57;7.25;;;6.70;99.90;;;;;;5020341;28;20037;-62
2020/12/15 05:53:19;;;;;;;16.00;7.07;;;6.70;99.90;;;;;;5034142;28;20497;-62
2020/12/15 05:56:06;;;;;;;17.98;7.75;;;6.80;99.90;;;;;;5019382;28;20033;-62
2020/12/15 05:58:55;;;;;;;13.23;7.75;;;6.70;99.90;;;;;;5019616;28;20037;-62
2020/12/15 06:01:41;;;;;;;14.38;6.97;;;6.80;99.90;;;;;;5034545;28;20532;-62
2020/12/15 06:04:27;;;;;;;17.48;8.07;;;6.80;99.90;;;;;;5034073;28;20030;-63
2020/12/15 06:07:14;;;;;;;13.40;7.40;;;6.80;99.90;;;;;;5018767;28;20041;-63
2020/12/15 06:10:03;;;;;;;14.80;7.65;;;6.80;99.90;;;;;;5019271;28;20080;-63
2020/12/15 06:12:51;;;;;;;12.20;7.00;;;6.70;99.90;;;;;;5005447;28;20037;-63
2020/12/15 06:15:37;;;;;;;15.05;7.38;;;6.80;99.90;;;;;;5033176;28;20040;-63
2020/12/15 06:18:23;;;;;;;15.32;7.85;;;6.70;99.90;;;;;;5034218;28;20037;-62
2020/12/15 06:21:11;;;;;;;13.43;7.25;;;6.60;99.90;;;;;;5013766;28;20135;-62
2020/12/15 06:24:05;;;;;;;15.63;7.90;;;6.60;99.90;;;;;;4998836;28;20121;-62
2020/12/15 06:27:00;;;;;;;15.45;7.88;;;6.60;99.90;;;;;;5000951;28;20052;-62
2020/12/15 06:29:51;;;;;;;15.15;7.90;;;6.60;99.90;;;;;;5011951;28;20041;-62
2020/12/15 06:32:37;;;;;;;13.50;6.65;;;6.70;99.90;;;;;;4998735;28;20034;-61
2020/12/15 06:35:26;;;;;;;15.25;7.47;;;6.70;99.90;;;;;;5012606;28;20073;-62
2020/12/15 06:38:20;;;;;;;13.20;7.15;;;6.70;99.90;;;;;;5012866;28;20042;-62
2020/12/15 06:41:06;;;;;;;15.77;7.05;;;6.60;99.90;;;;;;4996039;28;20483;-62
2020/12/15 06:44:05;;;;;;;18.98;8.27;;;6.60;99.90;;;;;;4998929;28;20108;-63
2020/12/15 06:46:55;;;;;;;15.98;6.30;;;6.60;99.90;;;;;;4999917;28;20073;-63
2020/12/15 06:49:41;;;;;;;13.43;6.70;;;6.60;99.90;;;;;;5012749;28;20820;-63
2020/12/15 06:52:28;;;;;;;13.23;6.50;;;6.60;99.90;;;;;;5018098;28;20025;-63
2020/12/15 06:55:14;;;;;;;15.02;7.38;;;6.70;99.90;;;;;;5032877;28;20033;-62
2020/12/15 06:58:00;;;;;;;11.38;6.30;;;6.70;99.90;;;;;;5019060;28;20029;-62
2020/12/15 07:00:46;;;;;;;12.73;7.05;;;6.60;99.90;;;;;;5017569;28;20386;-62
2020/12/15 07:03:42;;;;;;;11.05;6.43;;;6.50;99.90;;;;;;5031886;28;20048;-62
2020/12/15 07:06:28;;;;;;;11.50;6.43;;;6.50;99.90;;;;;;5004315;28;20037;-62
2020/12/15 07:09:14;;;;;;;11.23;6.47;;;6.60;99.90;;;;;;5018081;28;20107;-62
2020/12/15 07:12:09;;;;;;;11.75;6.25;;;6.70;99.90;;;;;;5033446;28;20056;-62
2020/12/15 07:14:55;;;;;;;14.73;6.38;;;6.70;99.90;;;;;;5033305;28;20501;-62
2020/12/15 07:17:47;;;;;;;12.43;6.95;;;6.70;99.90;;;;;;5032497;28;20038;-62
2020/12/15 07:20:33;;;;;;;15.88;7.47;;;6.50;99.90;;;;;;5018191;28;20022;-62
2020/12/15 07:23:21;;;;;;;25.77;12.65;;;6.50;99.90;;;;;;5034139;28;20041;-62
2020/12/15 07:26:25;;;;;;;10.50;6.40;;;6.50;99.90;;;;;;5032598;28;20038;-62
2020/12/15 07:29:16;;;;;;;47.30;21.30;;;6.60;99.90;;;;;;5031732;28;20072;-62
2020/12/15 07:32:02;;;;;;;17.42;8.30;;;6.60;99.90;;;;;;5030958;28;20132;-62
2020/12/15 07:34:48;;;;;;;12.02;6.20;;;6.50;99.90;;;;;;5032324;28;20033;-62
2020/12/15 07:37:37;;;;;;;14.93;9.27;;;6.60;99.90;;;;;;5030968;28;20049;-62
2020/12/15 07:40:30;;;;;;;17.13;7.80;;;6.50;99.90;;;;;;5032304;28;20072;-62
2020/12/15 07:43:16;;;;;;;14.75;7.13;;;6.50;99.90;;;;;;5031964;28;20410;-62
2020/12/15 07:46:02;;;;;;;13.95;7.07;;;6.60;99.90;;;;;;5032642;28;20517;-62
2020/12/15 07:48:52;;;;;;;16.98;7.70;;;6.60;99.90;;;;;;5030905;28;20100;-62
2020/12/15 07:51:39;;;;;;;15.50;7.63;;;6.60;99.90;;;;;;5030644;28;20096;-62
2020/12/15 07:54:25;;;;;;;19.13;7.70;;;6.70;99.90;;;;;;5017426;28;20052;-62
2020/12/15 07:57:13;;;;;;;12.95;7.85;;;6.90;99.90;;;;;;5016785;28;20037;-62
2020/12/15 08:00:06;;;;;;;14.95;7.47;;;6.90;99.90;;;;;;5003963;28;20385;-62
2020/12/15 08:03:01;;;;;;;15.05;7.20;;;6.80;99.90;;;;;;5030182;28;20120;-62
2020/12/15 08:05:47;;;;;;;12.93;6.78;;;6.50;99.90;;;;;;5030809;28;20037;-62
2020/12/15 08:08:34;;;;;;;13.40;7.32;;;6.40;99.90;;;;;;5032666;28;20029;-62
2020/12/15 08:11:20;;;;;;;14.40;6.90;;;6.30;99.90;;;;;;5026919;28;20030;-62
2020/12/15 08:14:07;;;;;;;14.23;7.65;;;6.40;99.90;;;;;;5030192;28;20045;-62
2020/12/15 08:16:54;;;;;;;14.93;7.15;;;6.40;99.90;;;;;;5016726;28;20037;-62
2020/12/15 08:19:40;;;;;;;24.23;10.90;;;6.40;99.90;;;;;;5017128;28;20548;-62
2020/12/15 08:22:27;;;;;;;26.38;10.07;;;6.40;99.90;;;;;;5010909;28;20034;-62
2020/12/15 08:25:16;;;;;;;20.85;9.40;;;6.30;99.90;;;;;;5010506;28;20044;-62
2020/12/15 08:28:21;;;;;;;23.00;8.73;;;6.40;99.90;;;;;;5011704;28;20072;-62
2020/12/15 08:31:11;;;;;;;20.83;9.13;;;6.50;99.90;;;;;;5009496;28;20041;-62
2020/12/15 08:33:58;;;;;;;17.40;8.73;;;6.40;99.90;;;;;;5011552;28;20033;-62
2020/12/15 08:36:50;;;;;;;20.83;9.60;;;6.40;99.90;;;;;;4997844;28;20036;-62
2020/12/15 08:39:40;;;;;;;20.65;8.65;;;6.40;99.90;;;;;;5011384;28;20046;-62
2020/12/15 08:42:26;;;;;;;17.95;7.88;;;6.60;99.90;;;;;;5010960;28;20092;-62
2020/12/15 08:45:17;;;;;;;13.52;7.30;;;6.60;99.90;;;;;;5010697;28;20095;-62
2020/12/15 08:48:03;;;;;;;16.05;6.80;;;6.60;99.90;;;;;;5017167;28;20080;-62
2020/12/15 08:50:50;;;;;;;16.35;7.15;;;6.70;99.90;;;;;;5032350;28;20490;-62
2020/12/15 08:53:36;;;;;;;14.23;6.63;;;6.80;99.90;;;;;;5032070;28;20042;-62
2020/12/15 08:56:22;;;;;;;12.55;6.85;;;6.90;99.90;;;;;;5031206;28;20077;-62
2020/12/15 08:59:16;;;;;;;15.68;7.35;;;7.00;99.90;;;;;;5031530;28;20045;-63
2020/12/15 09:02:03;;;;;;;14.10;6.68;;;7.00;99.90;;;;;;5029962;28;20033;-63
2020/12/15 09:04:49;;;;;;;12.10;6.25;;;7.10;99.90;;;;;;5030836;28;20037;-61
2020/12/15 09:07:37;;;;;;;22.02;7.68;;;7.10;99.90;;;;;;5030736;28;20034;-61
2020/12/15 09:10:23;;;;;;;18.10;7.50;;;7.20;99.90;;;;;;5031320;28;20130;-61
2020/12/15 09:13:09;;;;;;;16.58;6.43;;;7.20;99.90;;;;;;5010648;28;20121;-61
2020/12/15 09:15:57;;;;;;;12.77;6.18;;;7.20;99.90;;;;;;5011456;28;20034;-59
2020/12/15 09:18:43;;;;;;;13.18;6.85;;;7.20;99.90;;;;;;4995770;28;20088;-59
2020/12/15 09:21:29;;;;;;;12.50;6.75;;;7.30;99.90;;;;;;5024373;28;20041;-59
2020/12/15 09:24:15;;;;;;;18.17;8.30;;;7.30;99.90;;;;;;5030147;28;20482;-59
2020/12/15 09:27:02;;;;;;;15.88;7.45;;;7.40;99.90;;;;;;5030664;28;20046;-58
2020/12/15 09:29:49;;;;;;;16.70;8.80;;;7.50;99.90;;;;;;5032242;28;20128;-60
2020/12/15 09:32:35;;;;;;;19.90;7.90;;;7.50;99.90;;;;;;5030719;28;20041;-59
2020/12/15 09:35:21;;;;;;;18.27;7.80;;;7.60;99.90;;;;;;5031045;28;20073;-59
2020/12/15 09:38:07;;;;;;;13.82;7.00;;;7.70;99.90;;;;;;5030062;28;20069;-59
2020/12/15 09:40:56;;;;;;;15.95;6.97;;;7.70;99.90;;;;;;5030073;28;20391;-59
2020/12/15 09:43:45;;;;;;;17.00;7.65;;;7.80;99.90;;;;;;5030535;28;20049;-60
2020/12/15 09:46:38;;;;;;;11.88;6.00;;;7.90;99.90;;;;;;5030101;28;20084;-59
2020/12/15 09:49:24;;;;;;;13.07;6.88;;;7.90;99.90;;;;;;5031366;28;20068;-60
2020/12/15 09:52:11;;;;;;;13.65;6.72;;;8.00;99.90;;;;;;5016635;28;20095;-60
2020/12/15 09:54:57;;;;;;;12.10;6.72;;;8.20;99.90;;;;;;5015350;28;20036;-60
2020/12/15 09:57:43;;;;;;;15.32;6.50;;;8.30;99.90;;;;;;5015647;28;20048;-60
2020/12/15 10:00:29;;;;;;;11.20;6.38;;;8.30;99.90;;;;;;5031159;28;20442;-61
2020/12/15 10:03:15;;;;;;;11.43;5.93;;;8.30;99.90;;;;;;5034438;28;20044;-60
2020/12/15 10:06:01;;;;;;;11.13;6.03;;;8.50;99.90;;;;;;5034408;28;20069;-59
2020/12/15 10:08:47;;;;;;;15.05;5.40;;;8.50;99.90;;;;;;5034844;28;20042;-59
2020/12/15 10:11:34;;;;;;;10.02;5.00;;;8.50;99.90;;;;;;5034374;28;20030;-60
2020/12/15 10:14:20;;;;;;;10.20;5.18;;;8.40;99.90;;;;;;5032728;28;20041;-60
2020/12/15 10:17:06;;;;;;;8.93;4.32;;;8.50;99.90;;;;;;5033184;28;20037;-60
2020/12/15 10:19:52;;;;;;;8.23;4.25;;;8.60;99.90;;;;;;5035161;28;20029;-60
2020/12/15 10:22:38;;;;;;;8.57;4.40;;;8.60;99.90;;;;;;5033513;28;20164;-60
2020/12/15 10:25:24;;;;;;;9.43;4.55;;;8.60;99.90;;;;;;5034193;28;20029;-59
2020/12/15 10:28:11;;;;;;;7.15;4.03;;;8.60;99.90;;;;;;5033269;28;20402;-60
2020/12/15 10:30:58;;;;;;;8.85;4.60;;;8.50;99.90;;;;;;5033211;28;20053;-59
2020/12/15 10:33:44;;;;;;;7.80;3.97;;;8.50;99.90;;;;;;5034994;28;20406;-58
2020/12/15 10:36:30;;;;;;;10.07;4.97;;;8.60;99.90;;;;;;5034052;28;20141;-59
2020/12/15 10:39:17;;;;;;;6.10;3.60;;;8.60;99.90;;;;;;5033395;28;20540;-59
2020/12/15 10:42:03;;;;;;;9.95;3.67;;;8.60;99.90;;;;;;5033204;28;20038;-57
2020/12/15 10:44:49;;;;;;;7.05;3.38;;;8.60;99.90;;;;;;5033273;28;20041;-59
2020/12/15 10:47:35;;;;;;;7.60;3.90;;;8.60;99.90;;;;;;5033563;28;20375;-59
2020/12/15 10:50:21;;;;;;;8.32;4.18;;;8.60;99.90;;;;;;5034602;28;20045;-58
2020/12/15 10:53:10;;;;;;;11.20;4.63;;;8.60;99.90;;;;;;5034089;28;20033;-59
2020/12/15 10:55:56;;;;;;;11.75;5.40;;;8.50;99.90;;;;;;5018596;28;20486;-59
2020/12/15 10:58:42;;;;;;;10.10;4.97;;;8.50;99.90;;;;;;5032894;28;20120;-60
2020/12/15 11:01:28;;;;;;;10.88;5.18;;;8.50;99.90;;;;;;5033209;28;20037;-62
2020/12/15 11:04:14;;;;;;;9.52;4.35;;;8.40;99.90;;;;;;5033994;28;20030;-59
2020/12/15 11:07:00;;;;;;;8.55;4.75;;;8.40;99.90;;;;;;5033954;28;20049;-60
2020/12/15 11:09:46;;;;;;;10.77;5.50;;;8.40;99.90;;;;;;5033865;28;20042;-60
2020/12/15 11:12:32;;;;;;;15.52;4.80;;;8.40;99.90;;;;;;5031880;28;20103;-60
2020/12/15 11:15:18;;;;;;;13.30;4.45;;;8.40;99.90;;;;;;5033152;28;20088;-59
2020/12/15 11:18:06;;;;;;;6.35;3.83;;;8.30;99.90;;;;;;5033218;28;20037;-59
2020/12/15 11:20:52;;;;;;;5.93;3.15;;;8.30;99.90;;;;;;5032959;28;20060;-59
2020/12/15 11:23:38;;;;;;;8.15;3.70;;;8.30;99.90;;;;;;5032483;28;20398;-59
2020/12/15 11:26:24;;;;;;;7.32;3.60;;;8.30;99.90;;;;;;5032946;28;20033;-59
2020/12/15 11:29:10;;;;;;;7.43;3.58;;;8.30;99.90;;;;;;5032301;28;20041;-59
2020/12/15 11:31:56;;;;;;;5.28;3.25;;;8.30;99.90;;;;;;5033068;28;20120;-59
2020/12/15 11:34:42;;;;;;;8.45;3.25;;;8.30;99.90;;;;;;5032170;28;20065;-59
2020/12/15 11:37:28;;;;;;;6.70;3.38;;;8.40;99.90;;;;;;5031191;28;20044;-59
2020/12/15 11:40:15;;;;;;;8.02;4.10;;;8.40;99.90;;;;;;5032115;28;20037;-59
2020/12/15 11:43:01;;;;;;;7.38;3.63;;;8.40;99.90;;;;;;5031194;28;20460;-60
2020/12/15 11:45:48;;;;;;;7.72;3.70;;;8.50;99.90;;;;;;5032851;28;20029;-60
2020/12/15 11:48:34;;;;;;;8.80;3.80;;;8.50;99.90;;;;;;5031914;28;20045;-60
2020/12/15 11:51:20;;;;;;;7.57;4.35;;;8.60;99.90;;;;;;5017055;28;20041;-60
2020/12/15 11:54:07;;;;;;;7.07;3.35;;;8.60;99.90;;;;;;5031508;28;20061;-60
2020/12/15 11:56:53;;;;;;;9.70;4.80;;;8.50;99.90;;;;;;5031723;28;20091;-60
2020/12/15 11:59:39;;;;;;;9.30;4.40;;;8.60;99.90;;;;;;5032003;28;20043;-60
2020/12/15 12:02:25;;;;;;;8.23;4.53;;;8.60;99.90;;;;;;5030619;28;20508;-60
2020/12/15 12:05:11;;;;;;;6.88;3.83;;;8.60;99.90;;;;;;5032140;28;20069;-59
2020/12/15 12:07:57;;;;;;;6.75;3.50;;;8.60;99.90;;;;;;5031622;28;20037;-58
2020/12/15 12:10:43;;;;;;;7.38;3.70;;;8.70;99.90;;;;;;5017151;28;20192;-59
2020/12/15 12:13:29;;;;;;;6.63;3.95;;;8.70;99.90;;;;;;5030639;28;20123;-59
2020/12/15 12:16:15;;;;;;;8.13;3.80;;;8.70;99.90;;;;;;5030525;28;20397;-60
2020/12/15 12:19:01;;;;;;;6.95;3.95;;;8.70;99.90;;;;;;5028875;28;20044;-60
2020/12/15 12:21:50;;;;;;;6.72;3.92;;;8.80;99.90;;;;;;5030725;28;20037;-60
2020/12/15 12:24:36;;;;;;;6.25;3.33;;;8.80;99.90;;;;;;5016098;28;20455;-59
2020/12/15 12:27:22;;;;;;;6.53;3.53;;;9.00;99.90;;;;;;5031103;28;20025;-59
2020/12/15 12:30:08;;;;;;;9.55;4.10;;;9.00;99.90;;;;;;5030451;28;20041;-59
2020/12/15 12:32:54;;;;;;;7.20;3.90;;;9.10;99.90;;;;;;5031588;28;20445;-60
2020/12/15 12:35:40;;;;;;;7.35;4.20;;;9.10;99.90;;;;;;5031738;28;20438;-59
2020/12/15 12:38:26;;;;;;;8.10;4.78;;;9.10;99.90;;;;;;5030027;28;20084;-59
2020/12/15 12:41:16;;;;;;;6.30;3.13;;;9.10;99.90;;;;;;5030288;28;20042;-59
2020/12/15 12:44:03;;;;;;;6.40;3.50;;;9.00;99.90;;;;;;5030535;28;20394;-59
2020/12/15 12:46:51;;;;;;;9.75;3.90;;;9.10;99.90;;;;;;5031335;28;20117;-59
2020/12/15 12:49:37;;;;;;;7.15;3.40;;;9.00;99.90;;;;;;5029606;28;20033;-59
2020/12/15 12:52:23;;;;;;;7.55;3.65;;;9.00;99.90;;;;;;5010940;28;20414;-60
2020/12/15 12:55:09;;;;;;;6.28;3.40;;;9.10;99.90;;;;;;5011455;28;20177;-60
2020/12/15 12:57:55;;;;;;;7.25;3.42;;;9.00;99.90;;;;;;5011289;28;20062;-60
2020/12/15 13:00:46;;;;;;;7.05;3.78;;;9.10;99.90;;;;;;5011048;28;20041;-59
2020/12/15 13:03:33;;;;;;;8.52;3.95;;;9.00;99.90;;;;;;5012078;28;20037;-60
2020/12/15 13:06:19;;;;;;;8.50;4.18;;;8.90;99.90;;;;;;4996487;28;20056;-60
2020/12/15 13:09:08;;;;;;;9.98;4.72;;;8.70;99.90;;;;;;5011482;28;20516;-59
2020/12/15 13:11:54;;;;;;;8.55;4.55;;;8.70;99.90;;;;;;5010803;28;20095;-60
2020/12/15 13:14:40;;;;;;;8.18;4.30;;;8.70;99.90;;;;;;5011003;28;20025;-60
2020/12/15 13:17:26;;;;;;;8.40;4.22;;;8.60;99.90;;;;;;4996879;28;20166;-59
2020/12/15 13:20:12;;;;;;;9.25;4.45;;;8.60;99.90;;;;;;5014163;28;20063;-61
2020/12/15 13:22:58;;;;;;;7.22;4.22;;;8.50;99.90;;;;;;5030260;28;20092;-59
2020/12/15 13:25:44;;;;;;;7.65;4.13;;;8.50;99.90;;;;;;5031586;28;20116;-61
2020/12/15 13:28:30;;;;;;;11.00;4.80;;;8.50;99.90;;;;;;5030352;28;20133;-60
2020/12/15 13:31:17;;;;;;;7.93;4.55;;;8.50;99.90;;;;;;5029773;28;20042;-60
2020/12/15 13:34:05;;;;;;;8.38;4.70;;;8.40;99.90;;;;;;5029502;28;20099;-59
2020/12/15 13:36:51;;;;;;;11.43;4.68;;;8.40;99.90;;;;;;5019960;28;20135;-60
2020/12/15 13:39:37;;;;;;;13.52;5.30;;;8.30;99.90;;;;;;5034802;28;20033;-61
2020/12/15 13:42:23;;;;;;;12.10;5.93;;;8.40;99.90;;;;;;5020264;28;20037;-59
2020/12/15 13:45:09;;;;;;;10.35;4.78;;;8.50;99.90;;;;;;5034580;28;20061;-60
2020/12/15 13:47:56;;;;;;;10.68;4.93;;;8.50;99.90;;;;;;5033178;28;20034;-60
2020/12/15 13:50:42;;;;;;;10.48;4.78;;;8.50;99.90;;;;;;5033149;28;20505;-61
2020/12/15 13:53:29;;;;;;;8.77;4.65;;;8.50;99.90;;;;;;5033511;28;20048;-60
2020/12/15 13:56:15;;;;;;;10.00;4.78;;;8.50;99.90;;;;;;5033908;28;20033;-60
2020/12/15 13:59:01;;;;;;;9.02;5.38;;;8.50;99.90;;;;;;5033470;28;20491;-59
2020/12/15 14:01:50;;;;;;;9.85;5.00;;;8.50;99.90;;;;;;5034990;28;20179;-60
2020/12/15 14:04:36;;;;;;;11.52;5.63;;;8.50;99.90;;;;;;5034467;28;20125;-60
2020/12/15 14:07:22;;;;;;;12.98;5.88;;;8.50;99.90;;;;;;5033396;28;20076;-59
2020/12/15 14:10:09;;;;;;;10.63;5.72;;;8.60;99.90;;;;;;5034171;28;20491;-60
2020/12/15 14:12:55;;;;;;;9.52;5.00;;;8.60;99.90;;;;;;5033647;28;20033;-59
2020/12/15 14:15:41;;;;;;;9.63;5.53;;;8.70;99.90;;;;;;5033161;28;20069;-59
2020/12/15 14:18:27;;;;;;;14.13;5.47;;;8.70;99.90;;;;;;5033562;28;20240;-60
2020/12/15 14:21:13;;;;;;;10.55;5.28;;;8.80;99.90;;;;;;5033503;28;20026;-60
2020/12/15 14:23:59;;;;;;;9.95;5.63;;;8.80;99.90;;;;;;5033192;28;20045;-59
2020/12/15 14:26:45;;;;;;;8.38;5.05;;;8.90;99.90;;;;;;5018761;28;20037;-59
2020/12/15 14:29:31;;;;;;;12.05;5.40;;;8.80;99.90;;;;;;5034044;28;20112;-60
2020/12/15 14:32:17;;;;;;;9.95;5.63;;;8.90;99.90;;;;;;5017492;28;20478;-59
2020/12/15 14:35:04;;;;;;;15.52;6.28;;;8.80;99.90;;;;;;5032939;28;20068;-60